createdAt,value
2018-12-29T00:00:02.433Z,83.2
2018-12-29T00:01:02.315Z,83.2
2018-12-29T00:02:02.229Z,83.4
2018-12-29T00:03:03.138Z,83.7
2018-12-29T00:04:03.128Z,83.6
2018-12-29T00:05:03.061Z,83.6
2018-12-29T00:06:02.973Z,83.8
2018-12-29T00:07:06.581Z,83.8
2018-12-29T00:08:06.472Z,84
2018-12-29T00:09:06.594Z,84.7
2018-12-29T00:10:06.490Z,84.7
2018-12-29T00:11:06.394Z,84.7
2018-12-29T00:12:06.353Z,84.8
2018-12-29T00:13:07.292Z,84.8
2018-12-29T00:14:07.222Z,84.7
2018-12-29T00:15:07.115Z,84.7
2018-12-29T00:16:08.030Z,85.2
2018-12-29T00:17:09.386Z,85.3
2018-12-29T00:18:09.366Z,85.5
2018-12-29T00:19:09.298Z,85.9
2018-12-29T00:20:09.424Z,86.3
2018-12-29T00:21:09.350Z,86.4
2018-12-29T00:22:09.242Z,86.3
2018-12-29T00:23:09.134Z,86.1
2018-12-29T00:24:09.250Z,86.1
2018-12-29T00:25:09.168Z,86.4
2018-12-29T00:26:09.073Z,86.4
2018-12-29T00:27:09.420Z,86.5
2018-12-29T00:28:09.290Z,86.7
2018-12-29T00:29:10.263Z,86.4
2018-12-29T00:30:10.187Z,86.5
2018-12-29T00:31:10.075Z,86.6
2018-12-29T00:32:09.976Z,86.5
2018-12-29T00:33:09.904Z,86.4
2018-12-29T00:34:09.806Z,86.4
2018-12-29T00:35:09.733Z,86.3
2018-12-29T00:36:09.667Z,86.3
2018-12-29T00:37:10.077Z,86.2
2018-12-29T00:38:13.083Z,86.3
2018-12-29T00:39:14.000Z,86.2
2018-12-29T00:40:19.367Z,86.1
2018-12-29T00:41:19.702Z,86.3
2018-12-29T00:42:19.853Z,86.5
2018-12-29T00:43:19.747Z,86.8
2018-12-29T00:44:19.881Z,86.7
2018-12-29T00:45:22.354Z,86.9
2018-12-29T00:46:22.271Z,86.7
2018-12-29T00:47:22.813Z,86.8
2018-12-29T00:48:22.729Z,86.8
2018-12-29T00:49:22.631Z,86.7
2018-12-29T00:50:22.571Z,86.6
2018-12-29T00:51:22.488Z,86.6
2018-12-29T00:52:24.942Z,86.4
2018-12-29T00:53:24.858Z,86.5
2018-12-29T00:54:26.621Z,86.5
2018-12-29T00:55:26.615Z,86.7
2018-12-29T00:56:27.559Z,86.6
2018-12-29T00:57:27.941Z,86.9
2018-12-29T00:58:27.833Z,87.1
2018-12-29T00:59:27.738Z,87.2
2018-12-29T01:00:27.647Z,87.4
2018-12-29T01:01:27.591Z,87.3
2018-12-29T01:02:27.522Z,87.1
2018-12-29T01:03:27.637Z,87.7
2018-12-29T01:04:30.533Z,87
2018-12-29T01:05:30.459Z,87.2
2018-12-29T01:06:33.231Z,87.4
2018-12-29T01:07:34.597Z,87.4
2018-12-29T01:08:34.503Z,87.6
2018-12-29T01:09:34.405Z,87.4
2018-12-29T01:10:34.311Z,87.2
2018-12-29T01:11:34.444Z,87.1
2018-12-29T01:12:34.330Z,87
2018-12-29T01:13:34.225Z,86.9
2018-12-29T01:14:34.107Z,86.8
2018-12-29T01:15:36.823Z,86.8
2018-12-29T01:16:36.693Z,86.8
2018-12-29T01:17:37.092Z,86.7
2018-12-29T01:18:37.231Z,86.5
2018-12-29T01:19:38.129Z,86.4
2018-12-29T01:20:38.051Z,86.3
2018-12-29T01:21:38.035Z,86.2
2018-12-29T01:22:37.941Z,87
2018-12-29T01:23:46.578Z,86.5
2018-12-29T01:24:46.496Z,86.7
2018-12-29T01:25:46.413Z,86.8
2018-12-29T01:26:46.382Z,86.7
2018-12-29T01:27:49.503Z,86.9
2018-12-29T01:28:49.410Z,86.9
2018-12-29T01:29:49.341Z,86.8
2018-12-29T01:30:49.284Z,86.7
2018-12-29T01:31:49.216Z,86.9
2018-12-29T01:32:49.128Z,87
2018-12-29T01:33:49.016Z,86.9
2018-12-29T01:34:48.947Z,86.6
2018-12-29T01:35:49.092Z,86.4
2018-12-29T01:36:49.002Z,86.3
2018-12-29T01:37:49.328Z,86.3
2018-12-29T01:38:50.246Z,86.4
2018-12-29T01:39:52.854Z,86.3
2018-12-29T01:40:55.727Z,86.3
2018-12-29T01:41:55.687Z,86.4
2018-12-29T01:42:56.645Z,86.4
2018-12-29T01:43:56.526Z,86.1
2018-12-29T01:44:56.674Z,86.3
2018-12-29T01:45:56.604Z,86.3
2018-12-29T01:46:56.754Z,86.4
2018-12-29T01:47:57.057Z,86.4
2018-12-29T01:48:56.947Z,86.7
2018-12-29T01:49:56.866Z,86.6
2018-12-29T01:50:56.792Z,86.5
2018-12-29T01:51:57.188Z,86.5
2018-12-29T01:52:57.097Z,86.3
2018-12-29T01:53:57.004Z,86.3
2018-12-29T01:54:56.906Z,86.1
2018-12-29T01:55:56.805Z,86.4
2018-12-29T01:56:56.740Z,86.3
2018-12-29T01:57:57.082Z,86.1
2018-12-29T01:58:57.228Z,86
2018-12-29T01:59:57.161Z,85.8
2018-12-29T02:00:57.076Z,85.6
2018-12-29T02:01:57.040Z,85.6
2018-12-29T02:02:56.955Z,85.5
2018-12-29T02:03:56.849Z,85.5
2018-12-29T02:04:56.823Z,85.5
2018-12-29T02:05:56.780Z,85.7
2018-12-29T02:06:59.552Z,85.9
2018-12-29T02:07:59.871Z,86
2018-12-29T02:08:59.756Z,86
2018-12-29T02:09:59.657Z,85.8
2018-12-29T02:10:59.580Z,85.8
2018-12-29T02:11:59.466Z,85.9
2018-12-29T02:13:01.987Z,86
2018-12-29T02:14:01.944Z,85.8
2018-12-29T02:15:01.848Z,85.9
2018-12-29T02:16:01.764Z,86.1
2018-12-29T02:17:01.671Z,86.1
2018-12-29T02:18:03.067Z,86.3
2018-12-29T02:19:03.001Z,86.2
2018-12-29T02:20:02.992Z,86.3
2018-12-29T02:21:02.887Z,86.5
2018-12-29T02:22:02.795Z,86.7
2018-12-29T02:23:02.705Z,86.9
2018-12-29T02:24:05.421Z,87
2018-12-29T02:25:05.367Z,86.9
2018-12-29T02:26:05.278Z,86.9
2018-12-29T02:27:06.468Z,87
2018-12-29T02:28:06.903Z,87.2
2018-12-29T02:29:07.053Z,87.2
2018-12-29T02:30:06.986Z,87.2
2018-12-29T02:31:06.962Z,87.3
2018-12-29T02:32:06.848Z,87.2
2018-12-29T02:33:06.830Z,87
2018-12-29T02:34:06.768Z,86.9
2018-12-29T02:35:06.687Z,86.9
2018-12-29T02:36:09.378Z,86.9
2018-12-29T02:37:10.319Z,86.8
2018-12-29T02:38:10.680Z,86.9
2018-12-29T02:39:10.634Z,87
2018-12-29T02:40:10.544Z,87
2018-12-29T02:41:10.444Z,86.9
2018-12-29T02:42:10.343Z,86.9
2018-12-29T02:43:10.275Z,86.8
2018-12-29T02:44:10.412Z,86.8
2018-12-29T02:45:10.310Z,87
2018-12-29T02:46:10.238Z,87.2
2018-12-29T02:47:10.176Z,87.1
2018-12-29T02:48:12.863Z,87.2
2018-12-29T02:49:12.787Z,87.1
2018-12-29T02:50:12.748Z,87.1
2018-12-29T02:51:12.650Z,87
2018-12-29T02:52:12.653Z,86.9
2018-12-29T02:53:12.591Z,86.9
2018-12-29T02:54:12.750Z,86.9
2018-12-29T02:55:12.697Z,87.1
2018-12-29T02:56:12.596Z,86.9
2018-12-29T02:57:12.724Z,87
2018-12-29T02:58:13.310Z,86.9
2018-12-29T02:59:13.265Z,86.8
2018-12-29T03:00:13.190Z,86.7
2018-12-29T03:01:13.121Z,86.7
2018-12-29T03:02:13.027Z,86.6
2018-12-29T03:03:12.918Z,86.9
2018-12-29T03:04:15.671Z,87.1
2018-12-29T03:05:18.363Z,87.2
2018-12-29T03:06:20.821Z,87.2
2018-12-29T03:07:20.756Z,87.2
2018-12-29T03:08:21.094Z,87.2
2018-12-29T03:09:20.999Z,87.2
2018-12-29T03:10:21.040Z,87.1
2018-12-29T03:11:20.953Z,87
2018-12-29T03:12:20.909Z,86.9
2018-12-29T03:13:20.893Z,86.7
2018-12-29T03:14:20.821Z,87.1
2018-12-29T03:15:20.785Z,87.1
2018-12-29T03:16:20.710Z,86.9
2018-12-29T03:17:26.431Z,87.5
2018-12-29T03:18:26.773Z,86.9
2018-12-29T03:19:26.685Z,86.7
2018-12-29T03:20:26.863Z,86.7
2018-12-29T03:21:26.784Z,86.9
2018-12-29T03:22:26.712Z,86.9
2018-12-29T03:23:27.130Z,86.6
2018-12-29T03:24:27.063Z,87.5
2018-12-29T03:25:26.952Z,86.7
2018-12-29T03:26:26.895Z,86.5
2018-12-29T03:27:26.839Z,86.5
2018-12-29T03:28:27.529Z,86.4
2018-12-29T03:29:27.426Z,86.2
2018-12-29T03:30:27.391Z,86.2
2018-12-29T03:31:30.218Z,86.1
2018-12-29T03:32:31.184Z,86
2018-12-29T03:33:32.124Z,86.2
2018-12-29T03:34:32.149Z,86.5
2018-12-29T03:35:34.791Z,86.4
2018-12-29T03:36:34.717Z,86.4
2018-12-29T03:37:34.628Z,86.5
2018-12-29T03:38:37.787Z,86.7
2018-12-29T03:39:37.719Z,87
2018-12-29T03:40:37.636Z,86.9
2018-12-29T03:41:37.603Z,86.7
2018-12-29T03:42:37.525Z,86.6
2018-12-29T03:43:37.469Z,86.3
2018-12-29T03:44:37.392Z,86.4
2018-12-29T03:45:37.331Z,86.4
2018-12-29T03:46:37.279Z,86.3
2018-12-29T03:47:37.219Z,86.2
2018-12-29T03:47:46.813Z,85.7
2018-12-29T03:48:51.919Z,86.3
2018-12-29T03:49:51.936Z,86.3
2018-12-29T03:50:52.853Z,86.1
2018-12-29T03:51:58.519Z,86.1
2018-12-29T03:52:58.661Z,86
2018-12-29T03:53:58.816Z,85.9
2018-12-29T03:54:58.732Z,86
2018-12-29T03:55:59.663Z,86
2018-12-29T03:57:00.571Z,85.8
2018-12-29T03:58:02.530Z,86
2018-12-29T03:59:04.155Z,86.1
2018-12-29T04:00:07.069Z,86.2
2018-12-29T04:01:15.502Z,86.3
2018-12-29T04:02:15.416Z,86.3
2018-12-29T04:03:15.540Z,86.1
2018-12-29T04:04:18.346Z,85.7
2018-12-29T04:05:25.204Z,85.4
2018-12-29T04:06:30.208Z,85
2018-12-29T04:07:33.179Z,84.1
2018-12-29T04:08:33.062Z,84.6
2018-12-29T04:09:36.632Z,84.4
2018-12-29T04:10:39.591Z,84.2
2018-12-29T04:11:39.509Z,84
2018-12-29T04:12:40.458Z,84
2018-12-29T04:13:40.354Z,83.7
2018-12-29T04:14:40.958Z,83.6
2018-12-29T04:15:42.569Z,83.6
2018-12-29T04:16:47.507Z,83.6
2018-12-29T04:17:47.693Z,83.9
2018-12-29T04:18:50.338Z,83.9
2018-12-29T04:19:50.937Z,84.1
2018-12-29T04:20:50.836Z,84.3
2018-12-29T04:21:50.794Z,84.2
2018-12-29T04:22:53.693Z,84
2018-12-29T04:23:53.613Z,84
2018-12-29T04:24:53.588Z,84.2
2018-12-29T04:25:56.380Z,84.1
2018-12-29T04:27:00.072Z,84.2
2018-12-29T04:28:02.528Z,84.3
2018-12-29T04:29:08.944Z,84.6
2018-12-29T04:30:10.777Z,84.6
2018-12-29T04:31:11.118Z,84.6
2018-12-29T04:32:11.031Z,84.6
2018-12-29T04:33:11.216Z,84.6
2018-12-29T04:34:11.330Z,84.4
2018-12-29T04:35:11.480Z,84.4
2018-12-29T04:36:14.958Z,84.5
2018-12-29T04:37:20.574Z,84.5
2018-12-29T04:38:20.762Z,84.3
2018-12-29T04:39:20.636Z,84.4
2018-12-29T04:40:24.925Z,84.5
2018-12-29T04:41:32.914Z,84.4
2018-12-29T04:42:32.842Z,84.1
2018-12-29T04:43:32.738Z,84.2
2018-12-29T04:44:33.646Z,84.3
2018-12-29T04:45:37.340Z,84
2018-12-29T04:46:40.280Z,83.6
2018-12-29T04:47:40.174Z,82
2018-12-29T04:48:40.747Z,81.8
2018-12-29T04:49:44.086Z,82.4
2018-12-29T04:50:45.648Z,82.4
2018-12-29T04:51:45.540Z,82.3
2018-12-29T04:52:45.668Z,82.1
2018-12-29T04:53:46.614Z,82
2018-12-29T04:54:49.318Z,82
2018-12-29T04:55:49.718Z,82.1
2018-12-29T04:56:49.632Z,82.3
2018-12-29T04:57:50.546Z,82.4
2018-12-29T04:58:53.481Z,82.7
2018-12-29T04:59:53.349Z,82.9
2018-12-29T05:00:53.697Z,83.1
2018-12-29T05:01:53.640Z,83.3
2018-12-29T05:03:05.764Z,83.4
2018-12-29T05:04:05.642Z,83.2
2018-12-29T05:05:08.103Z,83.3
2018-12-29T05:06:08.928Z,83.3
2018-12-29T05:07:12.364Z,83.4
2018-12-29T05:08:12.266Z,83.6
2018-12-29T05:09:15.081Z,83.7
2018-12-29T05:10:21.324Z,84
2018-12-29T05:11:24.491Z,83.9
2018-12-29T05:12:30.289Z,84.7
2018-12-29T05:13:30.666Z,84.2
2018-12-29T05:14:30.564Z,84
2018-12-29T05:15:34.715Z,84.1
2018-12-29T05:16:37.522Z,84.2
2018-12-29T05:17:37.921Z,84.3
2018-12-29T05:18:38.080Z,84.3
2018-12-29T05:19:37.968Z,84.4
2018-12-29T05:20:38.344Z,84.5
2018-12-29T05:21:39.016Z,84.5
2018-12-29T05:22:39.949Z,83.9
2018-12-29T05:23:48.770Z,84.4
2018-12-29T05:24:52.299Z,84.3
2018-12-29T05:25:52.891Z,84.1
2018-12-29T05:26:52.798Z,83.8
2018-12-29T05:27:56.827Z,83.5
2018-12-29T05:28:56.947Z,83.3
2018-12-29T05:29:57.059Z,83.4
2018-12-29T05:31:00.151Z,83.2
2018-12-29T05:32:07.378Z,83
2018-12-29T05:33:07.278Z,82.9
2018-12-29T05:34:07.409Z,82.6
2018-12-29T05:35:10.945Z,82.3
2018-12-29T05:36:15.167Z,82.1
2018-12-29T05:37:20.581Z,83.6
2018-12-29T05:38:20.477Z,81.5
2018-12-29T05:39:20.618Z,82.2
2018-12-29T05:40:25.641Z,82
2018-12-29T05:41:25.539Z,81.8
2018-12-29T05:42:28.765Z,81.8
2018-12-29T05:43:28.647Z,81.9
2018-12-29T05:44:28.527Z,81.8
2018-12-29T05:45:29.647Z,81.7
2018-12-29T05:46:32.833Z,81.7
2018-12-29T05:47:32.990Z,81.6
2018-12-29T05:48:33.570Z,81.7
2018-12-29T05:49:33.532Z,81.9
2018-12-29T05:50:33.677Z,82.1
2018-12-29T05:51:34.587Z,82.3
2018-12-29T05:52:35.943Z,83
2018-12-29T05:53:35.847Z,83.4
2018-12-29T05:54:36.428Z,83.6
2018-12-29T05:55:36.325Z,83.5
2018-12-29T05:56:38.988Z,83.6
2018-12-29T05:57:38.920Z,83.3
2018-12-29T05:58:40.077Z,82.7
2018-12-29T05:59:39.972Z,84.3
2018-12-29T06:00:40.113Z,83.2
2018-12-29T06:01:43.042Z,83.4
2018-12-29T06:02:47.235Z,83.4
2018-12-29T06:03:47.842Z,83.3
2018-12-29T06:04:49.469Z,83.4
2018-12-29T06:05:49.349Z,83.7
2018-12-29T06:06:52.079Z,83.7
2018-12-29T06:07:55.034Z,83.6
2018-12-29T06:08:54.931Z,83.5
2018-12-29T06:09:55.874Z,83.5
2018-12-29T06:10:56.020Z,83.7
2018-12-29T06:11:55.900Z,83.8
2018-12-29T06:12:59.483Z,83.9
2018-12-29T06:14:01.003Z,83.9
2018-12-29T06:15:00.901Z,83.8
2018-12-29T06:16:01.840Z,83.9
2018-12-29T06:17:07.695Z,84.1
2018-12-29T06:18:07.629Z,84.5
2018-12-29T06:19:07.591Z,84.3
2018-12-29T06:20:13.347Z,84.5
2018-12-29T06:21:13.297Z,84.5
2018-12-29T06:22:13.405Z,84.5
2018-12-29T06:23:14.033Z,84.8
2018-12-29T06:24:20.059Z,84.9
2018-12-29T06:25:19.967Z,84.8
2018-12-29T06:26:19.847Z,84.9
2018-12-29T06:27:19.711Z,85.9
2018-12-29T06:28:20.619Z,85
2018-12-29T06:29:20.523Z,85.1
2018-12-29T06:30:20.434Z,85.3
2018-12-29T06:31:24.345Z,86.2
2018-12-29T06:32:25.275Z,85.2
2018-12-29T06:33:34.963Z,85.3
2018-12-29T06:34:35.908Z,85.4
2018-12-29T06:35:35.847Z,85.2
2018-12-29T06:36:36.749Z,85.9
2018-12-29T06:37:39.932Z,84.4
2018-12-29T06:38:41.553Z,84.9
2018-12-29T06:39:41.464Z,84.5
2018-12-29T06:40:49.463Z,83.6
2018-12-29T06:41:49.562Z,83.2
2018-12-29T06:42:49.457Z,83
2018-12-29T06:43:54.705Z,83.6
2018-12-29T06:45:00.605Z,83.2
2018-12-29T06:46:01.195Z,83.2
2018-12-29T06:47:01.109Z,83.4
2018-12-29T06:48:01.011Z,83.5
2018-12-29T06:49:05.317Z,83.5
2018-12-29T06:50:06.219Z,83.6
2018-12-29T06:51:10.135Z,83.8
2018-12-29T06:52:13.844Z,83.9
2018-12-29T06:53:14.802Z,83.9
2018-12-29T06:54:19.478Z,84.1
2018-12-29T06:55:22.260Z,84.2
2018-12-29T06:56:23.156Z,84.1
2018-12-29T06:57:26.162Z,84.3
2018-12-29T06:58:26.067Z,84.3
2018-12-29T06:59:26.226Z,84.3
2018-12-29T07:00:26.354Z,84.4
2018-12-29T07:01:27.265Z,84.4
2018-12-29T07:02:27.147Z,84.7
2018-12-29T07:03:27.042Z,84.7
2018-12-29T07:04:27.902Z,84.7
2018-12-29T07:05:28.040Z,84.7
2018-12-29T07:06:30.982Z,84.8
2018-12-29T07:07:31.115Z,84.9
2018-12-29T07:08:30.995Z,85.1
2018-12-29T07:09:31.826Z,85.1
2018-12-29T07:10:31.763Z,85.1
2018-12-29T07:11:34.218Z,85
2018-12-29T07:12:34.116Z,85.1
2018-12-29T07:13:34.002Z,85.1
2018-12-29T07:14:34.812Z,85.3
2018-12-29T07:15:34.698Z,85.3
2018-12-29T07:16:45.331Z,85.4
2018-12-29T07:17:46.280Z,85.5
2018-12-29T07:18:46.460Z,85.4
2018-12-29T07:19:46.386Z,85.5
2018-12-29T07:20:46.317Z,85.6
2018-12-29T07:21:46.218Z,85.7
2018-12-29T07:22:46.795Z,85.8
2018-12-29T07:23:46.717Z,85.9
2018-12-29T07:24:49.966Z,86
2018-12-29T07:25:49.865Z,86
2018-12-29T07:26:49.998Z,86
2018-12-29T07:27:51.898Z,86.1
2018-12-29T07:28:52.044Z,86.1
2018-12-29T07:29:54.878Z,86.1
2018-12-29T07:30:54.776Z,86.1
2018-12-29T07:31:54.650Z,86.1
2018-12-29T07:32:56.228Z,86.1
2018-12-29T07:33:56.122Z,86.1
2018-12-29T07:34:57.486Z,86.4
2018-12-29T07:35:58.462Z,86.5
2018-12-29T07:37:01.444Z,86.5
2018-12-29T07:38:01.344Z,86.6
2018-12-29T07:39:01.270Z,86.7
2018-12-29T07:40:01.616Z,86.6
2018-12-29T07:41:01.506Z,86.4
2018-12-29T07:42:01.907Z,86.6
2018-12-29T07:43:01.797Z,86.4
2018-12-29T07:44:01.953Z,86.6
2018-12-29T07:45:06.616Z,86.5
2018-12-29T07:46:10.484Z,86.4
2018-12-29T07:47:11.376Z,86.4
2018-12-29T07:48:11.272Z,86.4
2018-12-29T07:49:13.476Z,86.3
2018-12-29T07:50:13.357Z,86.3
2018-12-29T07:51:13.244Z,86.2
2018-12-29T07:52:15.724Z,86.3
2018-12-29T07:53:18.678Z,86.3
2018-12-29T07:54:23.348Z,86.3
2018-12-29T07:55:27.358Z,86.3
2018-12-29T07:56:28.272Z,86.4
2018-12-29T07:57:28.397Z,86.4
2018-12-29T07:58:28.543Z,86.3
2018-12-29T07:59:28.770Z,86.3
2018-12-29T08:00:28.668Z,86.3
2018-12-29T08:01:28.846Z,87.1
2018-12-29T08:02:31.542Z,86.2
2018-12-29T08:03:31.422Z,86.2
2018-12-29T08:04:31.879Z,86.2
2018-12-29T08:05:35.846Z,86.3
2018-12-29T08:06:35.743Z,86.1
2018-12-29T08:07:35.638Z,86.1
2018-12-29T08:08:41.262Z,86
2018-12-29T08:09:46.023Z,85.9
2018-12-29T08:10:45.904Z,84.9
2018-12-29T08:11:49.014Z,84.7
2018-12-29T08:12:49.595Z,84.5
2018-12-29T08:13:49.482Z,84.3
2018-12-29T08:14:59.452Z,84.7
2018-12-29T08:16:03.738Z,83.9
2018-12-29T08:17:03.954Z,84.2
2018-12-29T08:18:04.853Z,84
2018-12-29T08:19:04.968Z,83.8
2018-12-29T08:20:07.510Z,83.6
2018-12-29T08:21:07.670Z,83.2
2018-12-29T08:22:15.286Z,83
2018-12-29T08:23:18.130Z,83
2018-12-29T08:24:18.060Z,83
2018-12-29T08:25:20.991Z,83
2018-12-29T08:26:21.526Z,83
2018-12-29T08:27:21.488Z,83
2018-12-29T08:28:24.389Z,82.8
2018-12-29T08:29:27.150Z,82.8
2018-12-29T08:30:28.033Z,82.9
2018-12-29T08:31:28.180Z,83
2018-12-29T08:32:28.093Z,83
2018-12-29T08:33:30.716Z,83.2
2018-12-29T08:34:30.604Z,83.1
2018-12-29T08:35:30.534Z,83.2
2018-12-29T08:36:31.104Z,83.6
2018-12-29T08:37:31.038Z,83.8
2018-12-29T08:38:31.156Z,84
2018-12-29T08:39:31.031Z,84
2018-12-29T08:40:37.800Z,83.9
2018-12-29T08:41:41.740Z,83.6
2018-12-29T08:42:44.659Z,83.5
2018-12-29T08:43:44.564Z,83.4
2018-12-29T08:44:47.017Z,83.2
2018-12-29T08:45:50.682Z,82.5
2018-12-29T08:46:51.248Z,82.9
2018-12-29T08:47:51.134Z,82.7
2018-12-29T08:48:51.034Z,82.7
2018-12-29T08:49:50.938Z,82.6
2018-12-29T08:50:53.842Z,82.8
2018-12-29T08:51:54.740Z,83.1
2018-12-29T08:52:54.652Z,83.2
2018-12-29T08:54:00.967Z,83.3
2018-12-29T08:55:00.939Z,83.2
2018-12-29T08:56:01.116Z,83.4
2018-12-29T08:57:01.915Z,83.8
2018-12-29T08:58:01.882Z,83.9
2018-12-29T08:59:01.778Z,84
2018-12-29T09:00:01.663Z,83.7
2018-12-29T09:01:02.632Z,83.9
2018-12-29T09:02:02.525Z,84.1
2018-12-29T09:03:06.674Z,84.4
2018-12-29T09:04:06.569Z,84.6
2018-12-29T09:05:06.452Z,84.7
2018-12-29T09:06:06.359Z,84.8
2018-12-29T09:07:09.635Z,84.7
2018-12-29T09:08:13.514Z,84.7
2018-12-29T09:09:15.973Z,84.6
2018-12-29T09:10:18.876Z,84.7
2018-12-29T09:11:18.787Z,84.7
2018-12-29T09:12:18.923Z,84.4
2018-12-29T09:13:21.563Z,84.4
2018-12-29T09:14:21.481Z,84.7
2018-12-29T09:15:24.313Z,84.8
2018-12-29T09:16:24.241Z,84.9
2018-12-29T09:17:24.597Z,85.1
2018-12-29T09:18:24.487Z,84.9
2018-12-29T09:19:28.013Z,84.9
2018-12-29T09:20:27.933Z,84.7
2018-12-29T09:21:27.859Z,84.7
2018-12-29T09:22:28.000Z,84.3
2018-12-29T09:23:28.925Z,84.2
2018-12-29T09:24:31.798Z,84.5
2018-12-29T09:25:34.693Z,84.3
2018-12-29T09:26:35.631Z,84.4
2018-12-29T09:27:38.741Z,84.3
2018-12-29T09:28:38.639Z,84.3
2018-12-29T09:29:39.241Z,84.1
2018-12-29T09:30:39.163Z,84.1
2018-12-29T09:31:40.801Z,84.1
2018-12-29T09:32:40.696Z,84.3
2018-12-29T09:33:40.583Z,84.3
2018-12-29T09:34:40.472Z,84.4
2018-12-29T09:35:40.391Z,84.8
2018-12-29T09:36:40.297Z,84.9
2018-12-29T09:37:40.635Z,85.8
2018-12-29T09:38:40.537Z,85.1
2018-12-29T09:39:40.551Z,85
2018-12-29T09:40:40.482Z,84.7
2018-12-29T09:41:40.444Z,84.7
2018-12-29T09:42:40.365Z,84.7
2018-12-29T09:43:40.269Z,84.7
2018-12-29T09:44:40.172Z,84.8
2018-12-29T09:45:40.081Z,84.6
2018-12-29T09:46:39.987Z,84.8
2018-12-29T09:47:40.375Z,84.8
2018-12-29T09:48:40.276Z,84.7
2018-12-29T09:49:40.169Z,84.4
2018-12-29T09:50:40.054Z,84.4
2018-12-29T09:51:39.943Z,84.4
2018-12-29T09:52:39.936Z,84.7
2018-12-29T09:53:39.841Z,84.8
2018-12-29T09:54:39.725Z,84.8
2018-12-29T09:55:39.637Z,84.4
2018-12-29T09:56:39.547Z,84.1
2018-12-29T09:57:39.918Z,84.4
2018-12-29T09:58:39.827Z,84.5
2018-12-29T09:59:39.735Z,84.8
2018-12-29T10:00:39.637Z,84.7
2018-12-29T10:01:39.533Z,84.7
2018-12-29T10:02:39.446Z,84.7
2018-12-29T10:03:39.415Z,84.5
2018-12-29T10:04:39.302Z,84.3
2018-12-29T10:05:39.215Z,84.3
2018-12-29T10:06:39.121Z,84.3
2018-12-29T10:07:39.509Z,84.3
2018-12-29T10:08:39.489Z,84.5
2018-12-29T10:09:39.396Z,84.5
2018-12-29T10:10:39.309Z,84.5
2018-12-29T10:11:39.216Z,84.7
2018-12-29T10:12:39.154Z,84.7
2018-12-29T10:13:39.113Z,84.5
2018-12-29T10:14:39.011Z,84.7
2018-12-29T10:15:38.921Z,84.7
2018-12-29T10:16:38.851Z,84.6
2018-12-29T10:17:39.167Z,84.5
2018-12-29T10:18:39.095Z,84.4
2018-12-29T10:19:39.043Z,84.7
2018-12-29T10:20:38.963Z,84.5
2018-12-29T10:21:38.855Z,84.4
2018-12-29T10:22:38.775Z,84.4
2018-12-29T10:23:38.697Z,84.1
2018-12-29T10:24:38.643Z,84.1
2018-12-29T10:25:38.543Z,84.5
2018-12-29T10:26:38.448Z,84.3
2018-12-29T10:27:38.791Z,84.4
2018-12-29T10:28:38.708Z,84.3
2018-12-29T10:29:38.623Z,84.3
2018-12-29T10:30:38.536Z,84.7
2018-12-29T10:31:38.465Z,84.7
2018-12-29T10:32:38.399Z,84.4
2018-12-29T10:33:38.299Z,84.5
2018-12-29T10:34:38.211Z,84.7
2018-12-29T10:35:38.142Z,84.6
2018-12-29T10:36:38.045Z,84.5
2018-12-29T10:37:38.415Z,84.9
2018-12-29T10:38:38.319Z,85.2
2018-12-29T10:39:38.271Z,85.7
2018-12-29T10:40:38.158Z,85.3
2018-12-29T10:41:38.067Z,85.2
2018-12-29T10:42:40.919Z,85
2018-12-29T10:43:40.825Z,85.4
2018-12-29T10:44:40.735Z,85.6
2018-12-29T10:45:40.655Z,85.7
2018-12-29T10:46:40.586Z,85.9
2018-12-29T10:47:40.915Z,85.6
2018-12-29T10:48:40.831Z,85.6
2018-12-29T10:49:40.741Z,85.4
2018-12-29T10:50:40.643Z,85.2
2018-12-29T10:51:40.523Z,85
2018-12-29T10:52:40.425Z,85
2018-12-29T10:53:40.335Z,84.8
2018-12-29T10:54:40.265Z,84.9
2018-12-29T10:55:40.149Z,84.9
2018-12-29T10:56:40.043Z,84.9
2018-12-29T10:57:40.367Z,85.6
2018-12-29T10:58:40.261Z,85.5
2018-12-29T10:59:40.217Z,85.6
2018-12-29T11:00:40.127Z,85.4
2018-12-29T11:01:40.016Z,85.4
2018-12-29T11:02:39.919Z,85.4
2018-12-29T11:03:39.843Z,85.4
2018-12-29T11:04:39.954Z,85.6
2018-12-29T11:05:39.963Z,85.7
2018-12-29T11:06:39.868Z,85.8
2018-12-29T11:07:40.219Z,86
2018-12-29T11:08:40.127Z,85.4
2018-12-29T11:09:40.035Z,86
2018-12-29T11:10:39.970Z,85
2018-12-29T11:11:39.898Z,85.4
2018-12-29T11:12:39.791Z,84.4
2018-12-29T11:13:39.732Z,85
2018-12-29T11:14:39.645Z,83.9
2018-12-29T11:15:39.565Z,84.5
2018-12-29T11:16:39.484Z,83.9
2018-12-29T11:17:43.137Z,84.2
2018-12-29T11:18:43.017Z,84.6
2018-12-29T11:19:42.912Z,84.2
2018-12-29T11:20:42.865Z,84.2
2018-12-29T11:21:42.773Z,84.5
2018-12-29T11:22:42.659Z,84.2
2018-12-29T11:23:42.581Z,84.6
2018-12-29T11:24:42.490Z,84.4
2018-12-29T11:25:42.389Z,84.1
2018-12-29T11:26:42.338Z,84.1
2018-12-29T11:27:42.671Z,84
2018-12-29T11:28:42.557Z,84.1
2018-12-29T11:29:42.465Z,84.1
2018-12-29T11:30:42.356Z,84.2
2018-12-29T11:31:42.250Z,84.2
2018-12-29T11:32:42.160Z,84
2018-12-29T11:33:42.054Z,84.2
2018-12-29T11:34:41.962Z,84.6
2018-12-29T11:35:41.879Z,84.6
2018-12-29T11:36:41.796Z,84.5
2018-12-29T11:37:42.233Z,84.3
2018-12-29T11:38:44.022Z,84.6
2018-12-29T11:39:43.917Z,84.7
2018-12-29T11:40:43.812Z,85.2
2018-12-29T11:41:43.729Z,85.1
2018-12-29T11:42:43.666Z,85.2
2018-12-29T11:43:43.568Z,84.9
2018-12-29T11:44:43.460Z,84.4
2018-12-29T11:45:43.428Z,84.8
2018-12-29T11:46:43.348Z,84.5
2018-12-29T11:47:50.682Z,84.4
2018-12-29T11:48:51.309Z,84.7
2018-12-29T11:49:51.488Z,85
2018-12-29T11:50:51.433Z,84.3
2018-12-29T11:51:51.393Z,83.4
2018-12-29T11:52:51.368Z,83.3
2018-12-29T11:53:51.328Z,83.3
2018-12-29T11:54:51.299Z,83.4
2018-12-29T11:55:51.258Z,83.6
2018-12-29T11:56:51.213Z,83.8
2018-12-29T11:57:51.697Z,84.2
2018-12-29T11:58:52.270Z,83.7
2018-12-29T11:59:53.066Z,84.1
2018-12-29T12:00:53.018Z,83.8
2018-12-29T12:01:52.979Z,83.7
2018-12-29T12:02:52.945Z,82.7
2018-12-29T12:03:52.956Z,82.9
2018-12-29T12:04:52.944Z,83.5
2018-12-29T12:05:52.902Z,83.5
2018-12-29T12:06:52.859Z,83.5
2018-12-29T12:07:53.914Z,83.2
2018-12-29T12:08:54.594Z,83
2018-12-29T12:09:54.564Z,84.2
2018-12-29T12:10:54.537Z,83.3
2018-12-29T12:11:54.501Z,83.5
2018-12-29T12:12:54.472Z,83
2018-12-29T12:13:54.442Z,82.6
2018-12-29T12:14:54.421Z,82.7
2018-12-29T12:15:54.397Z,82.7
2018-12-29T12:16:55.054Z,82.8
2018-12-29T12:17:58.968Z,82.2
2018-12-29T12:18:59.870Z,82.1
2018-12-29T12:19:59.852Z,82.4
2018-12-29T12:21:00.021Z,82.3
2018-12-29T12:21:59.998Z,82
2018-12-29T12:22:59.978Z,81.3
2018-12-29T12:23:59.990Z,81.5
2018-12-29T12:25:00.038Z,80.1
2018-12-29T12:26:00.038Z,80.3
2018-12-29T12:27:00.029Z,80.1
2018-12-29T12:28:01.824Z,80.3
2018-12-29T12:29:02.663Z,79.6
2018-12-29T12:30:03.775Z,79.9
2018-12-29T12:31:03.796Z,79.4
2018-12-29T12:32:03.814Z,78.9
2018-12-29T12:33:03.896Z,79.2
2018-12-29T12:34:04.753Z,79.3
2018-12-29T12:35:05.351Z,79.4
2018-12-29T12:36:05.368Z,79.6
2018-12-29T12:37:05.312Z,79.7
2018-12-29T12:38:05.809Z,79.9
2018-12-29T12:39:06.634Z,79.5
2018-12-29T12:40:07.428Z,80.1
2018-12-29T12:41:07.414Z,80.1
2018-12-29T12:42:07.428Z,80.6
2018-12-29T12:43:07.614Z,79.8
2018-12-29T12:44:08.960Z,80
2018-12-29T12:45:09.971Z,80
2018-12-29T12:46:09.992Z,79.7
2018-12-29T12:47:09.992Z,79.8
2018-12-29T12:48:10.538Z,80.1
2018-12-29T12:49:10.549Z,80.2
2018-12-29T12:50:11.413Z,80.6
2018-12-29T12:51:12.276Z,80
2018-12-29T12:52:12.294Z,80
2018-12-29T12:53:13.048Z,79.8
2018-12-29T12:54:14.007Z,79.7
2018-12-29T12:55:14.119Z,79.7
2018-12-29T12:56:14.081Z,79.7
2018-12-29T12:57:15.115Z,79.8
2018-12-29T12:58:18.907Z,79.6
2018-12-29T12:59:20.900Z,79.9
2018-12-29T13:00:22.082Z,80.1
2018-12-29T13:01:22.987Z,80.2
2018-12-29T13:02:22.962Z,80.6
2018-12-29T13:03:23.851Z,80.5
2018-12-29T13:04:24.257Z,80.4
2018-12-29T13:05:24.282Z,80.8
2018-12-29T13:06:24.276Z,80.9
2018-12-29T13:07:24.219Z,80.9
2018-12-29T13:08:24.629Z,80.8
2018-12-29T13:09:24.581Z,80.6
2018-12-29T13:10:24.577Z,80.5
2018-12-29T13:11:24.521Z,80.2
2018-12-29T13:12:24.651Z,80.1
2018-12-29T13:13:24.606Z,80
2018-12-29T13:14:24.587Z,79.7
2018-12-29T13:15:24.555Z,80.2
2018-12-29T13:16:24.556Z,79.8
2018-12-29T13:17:24.510Z,79.5
2018-12-29T13:18:24.966Z,79.2
2018-12-29T13:19:29.359Z,79.2
2018-12-29T13:20:29.320Z,79.6
2018-12-29T13:21:29.325Z,79.5
2018-12-29T13:22:30.006Z,79.4
2018-12-29T13:23:30.703Z,79.5
2018-12-29T13:24:30.693Z,79.7
2018-12-29T13:25:30.662Z,79.4
2018-12-29T13:26:30.637Z,78.9
2018-12-29T13:27:30.595Z,79.2
2018-12-29T13:28:31.044Z,79.4
2018-12-29T13:29:31.015Z,79.4
2018-12-29T13:30:30.948Z,79.5
2018-12-29T13:31:33.053Z,79.2
2018-12-29T13:32:33.070Z,79.4
2018-12-29T13:33:33.052Z,79.3